Time;durP1;ratioP1;P1;durP2;ratioP2;P2;SDS_P1;SDS_P2;PMS_P1;PMS_P2;Temp;Humidity;BMP_temperature;BMP_pressure;BME280_temperature;BME280_humidity;BME280_pressure;Samples;Min_cycle;Max_cycle;Signal;HPM_P1;HPM_P2
2022/05/19 00:01:52;;;;;;;7.60;2.42;;;21.90;94.20;;;;;;5051893;28;20046;-69
2022/05/19 00:04:18;;;;;;;4.97;2.30;;;21.90;94.00;;;;;;5066294;28;20033;-69
2022/05/19 00:06:44;;;;;;;7.03;2.95;;;21.90;93.30;;;;;;5072859;28;20497;-69
2022/05/19 00:09:10;;;;;;;5.07;2.38;;;21.80;92.80;;;;;;5081275;28;20127;-69
2022/05/19 00:11:38;;;;;;;8.90;2.85;;;21.90;92.60;;;;;;5072242;28;20033;-69
2022/05/19 00:14:04;;;;;;;8.10;2.50;;;21.90;92.30;;;;;;5072235;28;20043;-69
2022/05/19 00:16:30;;;;;;;6.78;2.25;;;21.80;92.00;;;;;;5072051;28;20052;-69
2022/05/19 00:18:56;;;;;;;14.15;2.67;;;21.90;91.90;;;;;;5072212;28;20784;-69
2022/05/19 00:21:22;;;;;;;9.15;3.45;;;21.80;91.90;;;;;;5071089;28;20492;-69
2022/05/19 00:23:48;;;;;;;7.80;3.03;;;21.80;92.00;;;;;;5072342;28;20082;-69
2022/05/19 00:26:14;;;;;;;5.70;2.08;;;21.70;92.10;;;;;;5072481;28;20124;-69
2022/05/19 00:28:40;;;;;;;6.60;2.85;;;21.70;92.30;;;;;;5072106;28;20040;-69
2022/05/19 00:31:05;;;;;;;6.93;2.95;;;21.60;92.20;;;;;;5087932;28;20048;-69
2022/05/19 00:33:33;;;;;;;5.82;2.60;;;21.70;91.70;;;;;;5092450;28;20113;-69
2022/05/19 00:36:07;;;;;;;4.35;2.50;;;21.70;91.40;;;;;;5092425;28;20055;-69
2022/05/19 00:38:33;;;;;;;6.97;2.67;;;21.70;91.40;;;;;;5092540;28;20070;-69
2022/05/19 00:40:59;;;;;;;8.85;3.05;;;21.60;91.50;;;;;;5093246;28;20052;-69
2022/05/19 00:43:30;;;;;;;7.40;3.05;;;21.60;91.60;;;;;;5095904;28;20134;-69
2022/05/19 00:46:03;;;;;;;12.25;3.10;;;21.50;91.50;;;;;;5095808;28;20044;-68
2022/05/19 00:48:48;;;;;;;13.75;3.00;;;21.60;91.40;;;;;;5095593;28;20048;-69
2022/05/19 00:51:16;;;;;;;8.43;3.25;;;21.60;91.50;;;;;;5095669;28;20052;-69
2022/05/19 00:53:54;;;;;;;14.18;2.80;;;21.60;91.20;;;;;;5095778;28;20040;-69
2022/05/19 00:56:36;;;;;;;9.80;2.47;;;21.60;91.00;;;;;;5095307;28;20055;-69
2022/05/19 00:59:09;;;;;;;7.90;3.38;;;21.60;91.10;;;;;;5095543;28;20066;-69
2022/05/19 01:01:39;;;;;;;6.60;3.03;;;21.50;91.10;;;;;;5095533;28;20044;-69
2022/05/19 01:04:25;;;;;;;8.80;3.13;;;21.40;91.10;;;;;;5095541;28;20034;-69
2022/05/19 01:06:57;;;;;;;11.65;2.58;;;21.30;91.10;;;;;;5095511;28;20074;-69
2022/05/19 01:09:24;;;;;;;8.82;3.42;;;21.30;91.00;;;;;;5095548;28;20031;-69
2022/05/19 01:11:55;;;;;;;4.70;2.78;;;21.30;90.80;;;;;;5095574;28;20052;-69
2022/05/19 01:14:21;;;;;;;7.68;2.90;;;21.20;91.00;;;;;;5094284;28;20487;-68
2022/05/19 01:16:48;;;;;;;6.70;3.00;;;21.30;90.80;;;;;;5095457;28;20098;-68
2022/05/19 01:19:34;;;;;;;8.55;2.80;;;21.30;90.50;;;;;;5095450;28;20043;-68
2022/05/19 01:22:12;;;;;;;9.05;3.03;;;21.30;90.30;;;;;;5094812;28;20036;-69
2022/05/19 01:24:52;;;;;;;11.18;3.20;;;21.40;90.10;;;;;;5094758;28;20545;-68
2022/05/19 01:27:18;;;;;;;7.13;2.95;;;21.40;90.20;;;;;;5094875;28;20157;-68
2022/05/19 01:29:43;;;;;;;8.95;2.95;;;21.40;89.30;;;;;;5094569;28;20134;-69
2022/05/19 01:32:27;;;;;;;12.65;2.90;;;21.30;90.10;;;;;;5094858;28;20036;-68
2022/05/19 01:34:54;;;;;;;7.18;2.83;;;21.20;90.10;;;;;;5094715;28;20048;-68
2022/05/19 01:37:21;;;;;;;9.20;3.60;;;21.30;89.80;;;;;;5094819;28;20732;-68
2022/05/19 01:39:52;;;;;;;9.57;3.25;;;21.30;90.10;;;;;;5094772;28;20036;-68
2022/05/19 01:42:56;;;;;;;8.38;3.20;;;21.40;89.00;;;;;;5094828;28;20601;-69
2022/05/19 01:45:54;;;;;;;10.20;3.10;;;21.40;89.10;;;;;;5073586;28;20067;-69
2022/05/19 01:48:32;;;;;;;9.75;2.78;;;21.40;88.50;;;;;;5074165;28;20051;-69
2022/05/19 01:51:12;;;;;;;5.70;2.70;;;21.40;88.10;;;;;;5073647;28;20032;-69
2022/05/19 01:53:53;;;;;;;9.75;3.10;;;21.50;88.20;;;;;;5071276;28;20051;-69
2022/05/19 01:56:47;;;;;;;9.48;3.42;;;21.50;87.60;;;;;;5073028;28;20105;-69
2022/05/19 01:59:19;;;;;;;6.43;2.72;;;21.40;87.80;;;;;;5073836;28;20523;-69
2022/05/19 02:02:00;;;;;;;9.55;3.00;;;21.40;88.00;;;;;;5074072;28;20039;-69
2022/05/19 02:04:39;;;;;;;8.75;3.20;;;21.30;87.90;;;;;;5073823;28;20048;-69
2022/05/19 02:07:10;;;;;;;9.48;2.97;;;21.30;88.10;;;;;;5073923;28;20119;-68
2022/05/19 02:09:41;;;;;;;5.68;3.03;;;21.30;88.00;;;;;;5073314;28;20040;-69
2022/05/19 02:12:08;;;;;;;8.60;3.72;;;;;;;;;;5073926;28;20048;-69
2022/05/19 02:14:59;;;;;;;5.93;2.92;;;21.10;87.70;;;;;;5073655;28;20403;-69
2022/05/19 02:17:27;;;;;;;5.82;2.50;;;21.20;87.80;;;;;;5066622;28;20538;-69
2022/05/19 02:20:03;;;;;;;8.70;3.53;;;21.20;87.80;;;;;;5074067;28;20047;-68
2022/05/19 02:22:34;;;;;;;11.18;3.08;;;21.20;88.20;;;;;;5073959;28;20033;-69
2022/05/19 02:25:23;;;;;;;10.75;3.25;;;21.10;88.50;;;;;;5073968;28;20044;-68
2022/05/19 02:28:00;;;;;;;8.40;2.92;;;21.00;88.50;;;;;;5073871;28;20123;-69
2022/05/19 02:30:30;;;;;;;6.78;3.25;;;20.90;89.00;;;;;;5073909;28;20076;-68
2022/05/19 02:32:56;;;;;;;10.35;3.90;;;20.70;90.60;;;;;;5074042;28;20500;-69
2022/05/19 02:35:23;;;;;;;7.07;3.67;;;20.60;91.40;;;;;;5073497;28;20064;-69
2022/05/19 02:37:49;;;;;;;7.82;3.67;;;20.40;92.10;;;;;;5073182;28;20043;-68
2022/05/19 02:40:17;;;;;;;10.60;4.43;;;20.50;93.10;;;;;;5073637;28;20044;-68
2022/05/19 02:42:43;;;;;;;11.90;4.38;;;20.50;93.10;;;;;;5073498;28;20594;-69
2022/05/19 02:45:10;;;;;;;11.02;4.53;;;20.50;92.80;;;;;;5073416;28;20040;-69
2022/05/19 02:47:36;;;;;;;12.38;4.10;;;20.50;92.70;;;;;;5073510;28;20044;-69
2022/05/19 02:50:04;;;;;;;10.35;4.03;;;20.50;92.50;;;;;;5073489;28;20093;-69
2022/05/19 02:52:29;;;;;;;7.63;3.63;;;20.40;92.50;;;;;;5073356;28;20048;-68
2022/05/19 02:54:55;;;;;;;7.30;3.70;;;20.50;92.50;;;;;;5073150;28;20048;-68
2022/05/19 02:57:21;;;;;;;10.07;3.75;;;20.50;92.30;;;;;;5073255;28;20073;-69
2022/05/19 02:59:47;;;;;;;10.82;4.15;;;20.40;92.60;;;;;;5073239;28;20044;-68
2022/05/19 03:02:13;;;;;;;7.88;3.65;;;20.00;92.70;;;;;;5082308;28;20384;-68
2022/05/19 03:04:39;;;;;;;13.35;4.18;;;20.20;92.20;;;;;;5093392;28;20127;-68
2022/05/19 03:07:06;;;;;;;7.63;3.75;;;20.00;92.10;;;;;;5093336;28;20047;-68
2022/05/19 03:09:32;;;;;;;15.98;3.60;;;19.90;92.00;;;;;;5093136;28;20119;-68
2022/05/19 03:11:58;;;;;;;8.15;3.33;;;20.00;92.10;;;;;;5092874;28;20388;-68
2022/05/19 03:14:24;;;;;;;10.68;3.70;;;20.00;92.20;;;;;;5092870;28;20036;-68
2022/05/19 03:16:49;;;;;;;6.80;3.78;;;19.90;93.10;;;;;;5092789;28;20087;-68
2022/05/19 03:19:16;;;;;;;7.07;3.53;;;19.80;93.10;;;;;;5092979;28;20390;-68
2022/05/19 03:21:42;;;;;;;8.68;3.40;;;20.00;92.10;;;;;;5092830;28;20395;-68
2022/05/19 03:24:10;;;;;;;10.55;3.80;;;20.20;91.90;;;;;;5092673;28;20039;-68
2022/05/19 03:26:36;;;;;;;11.43;4.20;;;20.20;92.30;;;;;;5092719;28;20119;-68
2022/05/19 03:29:03;;;;;;;16.20;4.22;;;20.30;92.20;;;;;;5092826;28;20123;-68
2022/05/19 03:31:29;;;;;;;10.00;3.60;;;20.30;92.60;;;;;;5092906;28;20036;-68
2022/05/19 03:33:55;;;;;;;9.15;4.03;;;19.90;92.90;;;;;;5093071;28;20537;-68
2022/05/19 03:36:21;;;;;;;8.60;3.50;;;20.00;92.70;;;;;;5092908;28;20056;-68
2022/05/19 03:38:47;;;;;;;10.82;3.65;;;20.10;93.10;;;;;;5093012;28;20032;-68
2022/05/19 03:41:13;;;;;;;11.23;4.13;;;20.20;92.50;;;;;;5092987;28;20036;-68
2022/05/19 03:43:39;;;;;;;8.73;3.88;;;20.20;92.90;;;;;;5092917;28;20104;-68
2022/05/19 03:46:05;;;;;;;7.93;3.42;;;19.90;93.20;;;;;;5092831;28;20047;-68
2022/05/19 03:48:33;;;;;;;6.05;3.33;;;19.70;93.40;;;;;;5092735;28;20044;-68
2022/05/19 03:50:59;;;;;;;10.90;3.55;;;19.70;93.30;;;;;;5078634;28;20520;-68
2022/05/19 03:53:24;;;;;;;6.95;4.10;;;20.00;92.70;;;;;;5072526;28;20032;-68
2022/05/19 03:55:53;;;;;;;12.75;3.92;;;20.00;92.40;;;;;;5072615;28;20072;-68
2022/05/19 03:58:20;;;;;;;12.30;3.60;;;20.10;91.90;;;;;;5070791;28;20048;-68
2022/05/19 04:00:46;;;;;;;12.18;3.53;;;20.30;91.70;;;;;;5068296;28;20087;-68
2022/05/19 04:03:12;;;;;;;7.00;3.30;;;20.10;92.20;;;;;;5071395;28;20045;-68
2022/05/19 04:05:38;;;;;;;14.60;3.80;;;20.00;92.50;;;;;;5072293;28;20043;-68
2022/05/19 04:08:04;;;;;;;8.35;3.78;;;20.00;92.50;;;;;;5072164;28;20045;-68
2022/05/19 04:10:31;;;;;;;6.53;3.75;;;19.90;92.50;;;;;;5072142;28;20043;-68
2022/05/19 04:12:57;;;;;;;11.45;4.47;;;19.80;92.90;;;;;;5072371;28;20041;-68
2022/05/19 04:15:23;;;;;;;14.40;3.80;;;19.70;92.70;;;;;;5072389;28;20036;-68
2022/05/19 04:17:49;;;;;;;12.77;3.85;;;19.70;92.70;;;;;;5076236;28;20086;-68
2022/05/19 04:20:15;;;;;;;9.50;3.58;;;19.60;93.10;;;;;;5076388;28;20048;-68
2022/05/19 04:22:42;;;;;;;10.52;4.03;;;19.50;93.50;;;;;;5075966;28;20149;-68
2022/05/19 04:25:10;;;;;;;6.93;3.63;;;19.30;94.00;;;;;;5076183;28;20045;-68
2022/05/19 04:27:36;;;;;;;8.60;3.63;;;19.30;94.10;;;;;;5076163;28;20048;-68
2022/05/19 04:30:03;;;;;;;6.63;3.30;;;19.20;93.50;;;;;;5076253;28;20048;-68
2022/05/19 04:32:29;;;;;;;13.27;3.50;;;19.20;93.40;;;;;;5075893;28;20041;-68
2022/05/19 04:34:54;;;;;;;6.05;3.15;;;19.20;93.30;;;;;;5075765;28;20040;-68
2022/05/19 04:37:20;;;;;;;10.00;4.32;;;19.30;93.40;;;;;;5075754;28;20127;-68
2022/05/19 04:39:46;;;;;;;11.68;4.32;;;19.50;93.00;;;;;;5075717;28;20087;-68
2022/05/19 04:42:13;;;;;;;8.80;3.78;;;19.50;93.30;;;;;;5075850;28;20047;-68
2022/05/19 04:44:39;;;;;;;9.88;3.60;;;19.50;93.40;;;;;;5075597;28;21388;-68
2022/05/19 04:47:06;;;;;;;10.27;3.85;;;19.60;93.50;;;;;;5075618;28;20515;-68
2022/05/19 04:49:32;;;;;;;12.23;3.72;;;19.60;93.60;;;;;;5062213;28;20087;-68
2022/05/19 04:51:58;;;;;;;8.98;3.75;;;19.50;93.50;;;;;;5055457;28;20511;-68
2022/05/19 04:54:24;;;;;;;9.07;3.90;;;19.40;93.50;;;;;;5054367;28;20095;-68
2022/05/19 04:56:50;;;;;;;18.30;4.20;;;19.20;93.80;;;;;;5055256;28;20119;-68
2022/05/19 04:59:16;;;;;;;6.13;3.50;;;19.30;93.70;;;;;;5055662;28;20088;-68
2022/05/19 05:01:44;;;;;;;11.10;4.15;;;19.40;93.70;;;;;;5054417;28;20071;-69
2022/05/19 05:04:11;;;;;;;8.50;3.17;;;19.50;93.70;;;;;;5055263;28;20139;-68
2022/05/19 05:06:37;;;;;;;11.15;4.15;;;19.60;94.10;;;;;;5055606;28;20066;-69
2022/05/19 05:09:04;;;;;;;12.82;4.55;;;19.60;94.00;;;;;;5055052;28;20047;-68
2022/05/19 05:11:30;;;;;;;11.23;4.32;;;19.60;94.10;;;;;;5055067;28;20045;-69
2022/05/19 05:13:56;;;;;;;15.15;4.18;;;19.60;94.50;;;;;;5055144;28;20029;-69
2022/05/19 05:16:21;;;;;;;12.95;4.32;;;19.60;95.30;;;;;;5074670;28;20063;-69
2022/05/19 05:18:47;;;;;;;13.63;4.35;;;19.70;95.40;;;;;;5093964;28;20036;-68
2022/05/19 05:21:14;;;;;;;15.38;4.65;;;19.70;94.60;;;;;;5077210;28;20048;-69
2022/05/19 05:23:41;;;;;;;8.43;3.90;;;19.60;94.70;;;;;;5077552;28;20530;-69
2022/05/19 05:26:07;;;;;;;13.57;4.10;;;19.80;94.30;;;;;;5078562;28;20058;-68
2022/05/19 05:28:34;;;;;;;15.13;4.50;;;20.00;93.80;;;;;;5094239;28;20089;-69
2022/05/19 05:31:00;;;;;;;13.27;4.60;;;20.10;94.20;;;;;;5092542;28;20044;-69
2022/05/19 05:33:26;;;;;;;10.45;3.70;;;20.10;93.90;;;;;;5074260;28;20439;-69
2022/05/19 05:35:52;;;;;;;7.50;3.50;;;20.30;93.40;;;;;;5079854;28;20064;-69
2022/05/19 05:38:19;;;;;;;18.05;4.68;;;20.50;92.90;;;;;;5086877;28;20476;-69
2022/05/19 05:40:45;;;;;;;8.93;3.58;;;20.60;93.20;;;;;;5094898;28;20492;-69
2022/05/19 05:43:17;;;;;;;18.33;4.75;;;20.60;93.60;;;;;;5094934;28;20046;-70
2022/05/19 05:45:45;;;;;;;13.93;4.18;;;20.70;93.00;;;;;;5094817;28;20075;-69
2022/05/19 05:48:12;;;;;;;14.27;3.63;;;20.80;92.90;;;;;;5094818;28;20538;-69
2022/05/19 05:50:39;;;;;;;16.35;4.57;;;20.90;92.70;;;;;;5094726;28;20388;-69
2022/05/19 05:53:06;;;;;;;7.85;3.85;;;21.00;92.80;;;;;;5082298;28;20432;-69
2022/05/19 05:55:33;;;;;;;9.43;4.70;;;21.10;93.10;;;;;;5053041;28;20530;-68
2022/05/19 05:57:59;;;;;;;11.45;4.45;;;21.20;92.60;;;;;;5062905;28;20504;-69
2022/05/19 06:00:25;;;;;;;10.65;4.15;;;21.30;92.60;;;;;;5053986;28;20039;-69
2022/05/19 06:02:52;;;;;;;13.35;4.22;;;21.30;92.50;;;;;;5054237;28;20037;-69
2022/05/19 06:05:18;;;;;;;15.75;4.43;;;21.30;92.70;;;;;;5054206;28;20032;-68
2022/05/19 06:07:45;;;;;;;10.02;4.30;;;21.30;92.80;;;;;;5053713;28;20412;-68
2022/05/19 06:10:13;;;;;;;8.38;4.07;;;21.30;93.10;;;;;;5083239;28;20042;-69
2022/05/19 06:12:40;;;;;;;11.27;4.60;;;21.40;93.40;;;;;;5089373;28;20096;-69
2022/05/19 06:15:06;;;;;;;9.68;4.43;;;21.40;93.80;;;;;;5053082;28;20057;-69
2022/05/19 06:17:32;;;;;;;16.70;4.70;;;21.40;93.40;;;;;;5052761;28;20155;-69
2022/05/19 06:19:58;;;;;;;14.73;4.85;;;21.60;93.30;;;;;;5052429;28;20515;-69
2022/05/19 06:22:24;;;;;;;13.63;4.32;;;21.80;93.30;;;;;;5053904;28;20400;-69
2022/05/19 06:24:50;;;;;;;20.75;4.53;;;22.10;93.00;;;;;;5052878;28;20068;-69
2022/05/19 06:27:16;;;;;;;12.55;4.65;;;22.40;93.30;;;;;;5053980;28;20037;-69
2022/05/19 06:29:43;;;;;;;17.00;4.47;;;22.70;93.20;;;;;;5053571;28;20048;-69
2022/05/19 06:32:09;;;;;;;16.15;5.03;;;22.80;92.80;;;;;;5053243;28;20116;-69
2022/05/19 06:34:35;;;;;;;33.85;7.35;;;22.90;92.50;;;;;;5053693;28;20446;-69
2022/05/19 06:37:02;;;;;;;16.88;5.20;;;23.00;92.70;;;;;;5053680;28;20137;-70
2022/05/19 06:39:29;;;;;;;662.67;56.05;;;23.20;92.90;;;;;;5053289;28;20037;-70
2022/05/19 06:42:01;;;;;;;31.88;5.50;;;23.80;93.90;;;;;;5053699;28;20063;-69
2022/05/19 06:44:29;;;;;;;11.30;4.20;;;23.90;92.70;;;;;;5069338;28;20040;-69
2022/05/19 06:46:55;;;;;;;11.57;4.28;;;23.90;91.90;;;;;;5073703;28;20052;-69
2022/05/19 06:49:21;;;;;;;10.82;4.45;;;23.80;91.70;;;;;;5073556;28;20040;-69
2022/05/19 06:51:47;;;;;;;8.73;3.90;;;23.70;92.20;;;;;;5073468;28;20089;-69
2022/05/19 06:54:13;;;;;;;9.43;4.30;;;23.70;92.40;;;;;;5073132;28;20556;-69
2022/05/19 06:56:39;;;;;;;11.07;4.25;;;23.70;91.90;;;;;;5073037;28;20149;-69
2022/05/19 06:59:05;;;;;;;12.82;4.45;;;23.80;92.30;;;;;;5073379;28;20032;-69
2022/05/19 07:01:31;;;;;;;11.50;4.43;;;23.60;91.90;;;;;;5073191;28;20036;-69
2022/05/19 07:03:57;;;;;;;12.27;3.88;;;23.40;92.50;;;;;;5073250;28;20395;-69
2022/05/19 07:06:24;;;;;;;11.13;4.43;;;23.40;92.20;;;;;;5073175;28;20076;-69
2022/05/19 07:08:50;;;;;;;7.85;3.50;;;23.20;93.50;;;;;;5071834;28;20048;-69
2022/05/19 07:11:25;;;;;;;9.57;4.15;;;23.30;93.10;;;;;;5053032;28;20083;-69
2022/05/19 07:13:53;;;;;;;10.30;4.35;;;23.50;92.30;;;;;;5053331;28;20036;-69
2022/05/19 07:16:19;;;;;;;14.32;4.72;;;23.70;92.60;;;;;;5053164;28;20404;-69
2022/05/19 07:18:45;;;;;;;24.42;4.75;;;23.80;92.00;;;;;;5053080;28;20049;-70
2022/05/19 07:21:12;;;;;;;12.95;3.97;;;23.70;91.50;;;;;;5053085;28;20037;-69
2022/05/19 07:23:39;;;;;;;11.15;3.80;;;23.60;91.50;;;;;;5059754;28;20040;-69
2022/05/19 07:26:06;;;;;;;12.82;4.75;;;23.90;92.10;;;;;;5060566;28;20049;-69
2022/05/19 07:28:32;;;;;;;9.15;4.00;;;24.10;91.60;;;;;;5056543;28;20066;-70
2022/05/19 07:30:58;;;;;;;12.95;4.13;;;24.10;90.70;;;;;;5057535;28;20555;-69
2022/05/19 07:33:28;;;;;;;16.73;4.10;;;24.20;90.70;;;;;;5062400;28;20036;-69
2022/05/19 07:35:55;;;;;;;10.50;4.13;;;24.30;90.60;;;;;;5063177;28;20053;-69
2022/05/19 07:38:22;;;;;;;10.18;3.47;;;24.10;90.60;;;;;;5061901;28;20049;-69
2022/05/19 07:40:49;;;;;;;8.05;3.92;;;24.10;90.50;;;;;;5067196;28;20087;-69
2022/05/19 07:46:01;;;;;;;20.63;4.50;;;24.30;90.90;;;;;;5070543;28;20042;-70
2022/05/19 07:48:27;;;;;;;9.68;3.50;;;24.20;90.10;;;;;;5053018;28;20099;-69
2022/05/19 07:50:53;;;;;;;13.80;4.15;;;24.30;90.40;;;;;;5065494;28;20044;-70
2022/05/19 07:53:19;;;;;;;15.23;4.40;;;24.70;91.20;;;;;;5075566;28;20508;-70
2022/05/19 07:55:51;;;;;;;15.27;4.82;;;24.50;90.40;;;;;;5076348;28;20063;-70
2022/05/19 07:58:17;;;;;;;16.95;4.63;;;24.50;90.70;;;;;;5057665;28;20057;-70
2022/05/19 08:00:44;;;;;;;10.00;4.60;;;24.70;90.80;;;;;;5069004;28;20036;-70
2022/05/19 08:03:11;;;;;;;13.15;4.00;;;24.70;90.80;;;;;;5070170;28;20035;-69
2022/05/19 08:05:39;;;;;;;8.40;3.38;;;24.90;89.80;;;;;;5072438;28;20045;-69
2022/05/19 08:08:05;;;;;;;12.65;3.30;;;24.80;90.80;;;;;;5074410;28;20040;-69
2022/05/19 08:10:31;;;;;;;9.50;3.50;;;25.30;90.50;;;;;;5057819;28;20040;-69
2022/05/19 08:15:45;;;;;;;9.23;3.90;;;25.20;90.00;;;;;;5053199;28;20820;-69
2022/05/19 08:18:13;;;;;;;6.32;3.33;;;25.20;89.00;;;;;;5054314;28;20045;-69
2022/05/19 08:20:46;;;;;;;10.05;3.30;;;25.40;88.80;;;;;;5056977;28;20055;-69
2022/05/19 08:23:18;;;;;;;12.98;4.22;;;25.60;89.80;;;;;;5066255;28;20408;-69
2022/05/19 08:25:45;;;;;;;9.18;3.72;;;25.40;88.50;;;;;;5065330;28;20646;-69
2022/05/19 08:28:14;;;;;;;10.38;3.90;;;25.30;89.50;;;;;;5064496;28;20070;-69
2022/05/19 08:30:42;;;;;;;10.93;4.07;;;25.00;89.80;;;;;;5064054;28;20055;-69
2022/05/19 08:33:09;;;;;;;9.82;3.75;;;25.00;88.30;;;;;;5063513;28;20504;-69
2022/05/19 08:35:36;;;;;;;12.80;3.85;;;25.30;90.20;;;;;;5059750;28;20069;-69
2022/05/19 08:38:03;;;;;;;7.28;3.42;;;25.20;89.20;;;;;;5059661;28;20052;-69
2022/05/19 08:40:30;;;;;;;12.05;3.60;;;25.70;89.20;;;;;;5061816;28;20428;-69
2022/05/19 08:42:59;;;;;;;19.58;4.05;;;26.10;87.50;;;;;;5065931;28;20048;-69
2022/05/19 08:45:35;;;;;;;16.63;3.80;;;26.10;87.30;;;;;;5065611;28;20370;-69
2022/05/19 08:48:05;;;;;;;13.20;3.53;;;25.70;85.50;;;;;;5066421;28;20044;-69
2022/05/19 08:50:39;;;;;;;7.25;3.67;;;25.40;86.10;;;;;;5066332;28;20036;-69
2022/05/19 08:53:06;;;;;;;8.10;3.70;;;25.30;86.10;;;;;;5065746;28;20044;-69
2022/05/19 08:55:33;;;;;;;11.77;3.80;;;25.10;85.50;;;;;;5065979;28;20052;-69
2022/05/19 08:58:14;;;;;;;15.40;3.85;;;25.10;85.50;;;;;;5074630;28;20044;-69
2022/05/19 09:00:52;;;;;;;9.98;3.50;;;25.20;86.30;;;;;;5074082;28;20074;-69
2022/05/19 09:03:39;;;;;;;10.90;3.92;;;25.20;87.30;;;;;;5074504;28;20040;-70
2022/05/19 09:06:32;;;;;;;9.65;3.85;;;25.30;85.80;;;;;;5075657;28;20120;-69
2022/05/19 09:09:17;;;;;;;7.50;3.28;;;25.40;86.10;;;;;;5075462;28;20044;-69
2022/05/19 09:11:59;;;;;;;10.40;3.38;;;25.50;87.40;;;;;;5075064;28;20169;-69
2022/05/19 09:14:28;;;;;;;43.17;5.38;;;25.70;88.70;;;;;;5075506;28;20044;-69
2022/05/19 09:17:00;;;;;;;9.50;3.70;;;25.70;85.70;;;;;;5075282;28;20056;-69
2022/05/19 09:19:40;;;;;;;9.65;3.78;;;26.30;88.20;;;;;;5075082;28;20043;-69
2022/05/19 09:22:13;;;;;;;7.10;3.42;;;26.70;85.20;;;;;;5075172;28;20055;-69
2022/05/19 09:24:40;;;;;;;8.38;3.75;;;26.70;85.10;;;;;;5075152;28;20044;-70
2022/05/19 09:27:06;;;;;;;10.35;3.85;;;26.70;84.50;;;;;;5075171;28;20048;-70
2022/05/19 09:29:34;;;;;;;13.45;4.10;;;26.80;85.80;;;;;;5075220;28;20041;-69
2022/05/19 09:32:23;;;;;;;10.43;3.47;;;26.90;86.90;;;;;;5075167;28;20040;-70
2022/05/19 09:34:52;;;;;;;9.60;3.50;;;27.50;86.10;;;;;;5075005;28;20036;-69
2022/05/19 09:37:35;;;;;;;15.30;4.35;;;28.00;87.10;;;;;;5075063;28;20131;-70
2022/05/19 09:40:11;;;;;;;12.35;3.22;;;28.60;86.90;;;;;;5075051;28;20036;-69
2022/05/19 09:43:06;;;;;;;12.05;3.40;;;28.90;82.80;;;;;;5074865;28;20048;-69
2022/05/19 09:45:38;;;;;;;13.70;3.30;;;29.00;83.60;;;;;;5074650;28;20480;-70
2022/05/19 09:48:07;;;;;;;9.52;3.08;;;29.10;82.90;;;;;;5074897;28;20504;-69
2022/05/19 09:50:46;;;;;;;12.07;4.43;;;;;;;;;;5068733;28;20120;-69
2022/05/19 09:53:16;;;;;;;12.25;3.55;;;29.00;81.00;;;;;;5053566;28;20052;-69
2022/05/19 09:55:42;;;;;;;8.55;3.95;;;29.20;83.10;;;;;;5054189;28;20049;-69
2022/05/19 09:58:15;;;;;;;8.77;3.28;;;29.90;84.50;;;;;;5052781;28;20071;-69
2022/05/19 10:00:49;;;;;;;24.25;4.63;;;29.40;80.10;;;;;;5052808;28;20041;-70
2022/05/19 10:03:32;;;;;;;7.22;2.72;;;29.20;83.40;;;;;;5052587;28;20051;-70
2022/05/19 10:06:05;;;;;;;13.20;4.00;;;29.10;79.80;;;;;;5052465;28;20041;-70
2022/05/19 10:08:39;;;;;;;8.60;3.03;;;28.50;78.80;;;;;;5053013;28;20191;-69
2022/05/19 10:11:18;;;;;;;24.42;4.10;;;28.70;82.30;;;;;;5053297;28;20036;-70
2022/05/19 10:13:51;;;;;;;21.00;4.47;;;28.80;83.00;;;;;;5053777;28;20163;-70
2022/05/19 10:16:26;;;;;;;15.88;3.80;;;29.40;84.40;;;;;;5054216;28;20492;-70
2022/05/19 10:19:37;;;;;;;7.95;2.72;;;29.90;81.90;;;;;;5054220;28;20051;-70
2022/05/19 10:22:22;;;;;;;16.70;3.22;;;29.30;77.90;;;;;;5035557;28;20041;-70
2022/05/19 10:25:04;;;;;;;10.77;3.08;;;28.80;78.10;;;;;;5054088;28;20508;-70
2022/05/19 10:31:30;;;;;;;9.00;3.00;;;28.00;77.80;;;;;;5052523;28;20040;-70
2022/05/19 10:34:23;;;;;;;14.05;3.13;;;27.70;79.30;;;;;;5011770;28;20058;-70
2022/05/19 10:37:12;;;;;;;9.18;2.85;;;27.70;77.20;;;;;;5051048;28;20053;-70
2022/05/19 10:39:44;;;;;;;6.00;2.50;;;27.90;78.50;;;;;;5053829;28;20056;-70
2022/05/19 10:42:32;;;;;;;10.88;2.20;;;28.00;77.30;;;;;;5053743;28;20267;-70
2022/05/19 10:45:10;;;;;;;7.32;3.30;;;27.80;77.60;;;;;;5053737;28;20040;-70
2022/05/19 10:48:16;;;;;;;11.38;2.63;;;27.60;76.60;;;;;;5053543;28;20412;-69
2022/05/19 10:51:07;;;;;;;10.48;3.03;;;27.50;77.60;;;;;;5038491;28;20064;-70
2022/05/19 10:53:45;;;;;;;8.35;3.05;;;27.10;77.90;;;;;;5051532;28;20083;-70
2022/05/19 10:56:37;;;;;;;12.70;2.92;;;26.70;79.10;;;;;;5053306;28;20084;-69
2022/05/19 10:59:20;;;;;;;9.15;3.60;;;26.40;79.50;;;;;;5053534;28;20068;-70
2022/05/19 11:02:05;;;;;;;11.30;2.97;;;26.40;79.70;;;;;;5053379;28;20053;-70
2022/05/19 11:04:48;;;;;;;10.98;3.42;;;26.10;83.20;;;;;;5061308;28;20086;-70
2022/05/19 11:07:17;;;;;;;16.55;4.22;;;25.40;86.10;;;;;;5073358;28;20458;-70
2022/05/19 11:10:07;;;;;;;11.05;3.00;;;25.10;87.90;;;;;;5073409;28;20550;-70
2022/05/19 11:12:54;;;;;;;7.82;2.65;;;24.90;87.80;;;;;;5073240;28;20044;-70
2022/05/19 11:15:47;;;;;;;11.68;3.30;;;24.90;87.50;;;;;;5073097;28;20100;-69
2022/05/19 11:18:25;;;;;;;7.93;3.10;;;25.20;87.90;;;;;;5073287;28;20052;-69
2022/05/19 11:21:12;;;;;;;10.70;2.83;;;25.60;87.40;;;;;;5073160;28;20514;-69
2022/05/19 11:24:14;;;;;;;8.50;3.03;;;25.90;86.70;;;;;;5073225;28;20040;-70
2022/05/19 11:26:54;;;;;;;10.35;2.95;;;26.40;87.90;;;;;;5053168;28;20043;-70
2022/05/19 11:29:47;;;;;;;12.30;2.77;;;26.20;87.60;;;;;;5073199;28;20051;-70
2022/05/19 11:32:18;;;;;;;9.00;2.35;;;26.20;84.20;;;;;;5066868;28;20040;-70
2022/05/19 11:35:03;;;;;;;8.55;2.75;;;26.50;85.40;;;;;;5073068;28;20051;-70
2022/05/19 11:37:36;;;;;;;9.00;3.05;;;26.10;88.90;;;;;;5073019;28;20055;-69
2022/05/19 11:40:21;;;;;;;11.82;2.30;;;26.20;87.80;;;;;;5072819;28;20039;-70
2022/05/19 11:43:11;;;;;;;7.78;2.88;;;26.60;86.40;;;;;;5072945;28;20419;-70
2022/05/19 11:45:59;;;;;;;7.55;3.25;;;27.10;87.20;;;;;;5073237;28;20496;-70
2022/05/19 11:55:14;;;;;;;9.35;2.97;;;27.60;81.10;;;;;;5072912;28;20123;-70
2022/05/19 11:57:42;;;;;;;10.57;3.15;;;27.60;83.50;;;;;;5072786;28;20044;-70
2022/05/19 12:00:13;;;;;;;7.95;2.90;;;27.40;80.70;;;;;;5072736;28;20048;-70
2022/05/19 12:02:48;;;;;;;11.45;3.47;;;27.40;80.50;;;;;;5072693;28;20044;-70
2022/05/19 12:05:32;;;;;;;11.23;2.95;;;27.80;82.10;;;;;;5069847;28;20048;-70
2022/05/19 12:08:27;;;;;;;9.80;3.10;;;27.80;80.60;;;;;;5070581;28;20120;-70
2022/05/19 12:11:52;;;;;;;8.55;2.90;;;27.80;81.60;;;;;;5066574;28;20115;-70
2022/05/19 12:14:27;;;;;;;7.53;3.17;;;28.10;80.00;;;;;;5010409;28;20517;-70
2022/05/19 12:17:00;;;;;;;8.68;3.15;;;28.20;82.50;;;;;;5010246;28;20053;-70
2022/05/19 12:19:55;;;;;;;8.55;2.50;;;27.80;80.50;;;;;;5046910;28;20098;-70
2022/05/19 12:22:29;;;;;;;7.30;2.92;;;27.60;83.50;;;;;;5067154;28;20049;-70
2022/05/19 12:25:01;;;;;;;7.97;2.92;;;27.50;81.80;;;;;;5072347;28;20053;-70
2022/05/19 12:27:38;;;;;;;7.60;3.05;;;27.40;83.40;;;;;;5072386;28;20037;-70
2022/05/19 12:33:15;;;;;;;8.27;2.92;;;27.70;83.60;;;;;;5072532;28;20581;-70
2022/05/19 12:35:47;;;;;;;7.18;2.63;;;27.80;83.50;;;;;;5072431;28;20043;-70
2022/05/19 12:38:36;;;;;;;13.77;3.53;;;28.60;86.40;;;;;;5074907;28;20044;-70
2022/05/19 12:41:08;;;;;;;10.95;3.08;;;28.50;82.80;;;;;;5075906;28;20043;-70
2022/05/19 12:43:41;;;;;;;9.95;2.88;;;28.50;83.00;;;;;;5076059;28;20511;-70
2022/05/19 12:46:32;;;;;;;8.32;2.72;;;28.70;81.70;;;;;;5076005;28;20032;-70
2022/05/19 12:49:21;;;;;;;9.95;2.88;;;28.90;81.10;;;;;;5075550;28;20048;-70
2022/05/19 12:51:49;;;;;;;12.50;3.00;;;29.00;81.00;;;;;;5075919;28;20047;-70
2022/05/19 12:54:15;;;;;;;12.73;2.88;;;28.80;80.80;;;;;;5075844;28;20061;-70
2022/05/19 12:56:41;;;;;;;7.00;2.50;;;29.10;84.60;;;;;;5075446;28;20048;-70
2022/05/19 12:59:10;;;;;;;5.10;2.58;;;29.50;81.50;;;;;;5075469;28;20510;-70
2022/05/19 13:01:47;;;;;;;7.47;2.90;;;29.20;78.30;;;;;;5075791;28;20104;-70
2022/05/19 13:04:25;;;;;;;7.22;2.60;;;29.30;80.80;;;;;;5075636;28;20099;-70
2022/05/19 13:07:15;;;;;;;8.73;2.97;;;29.30;78.30;;;;;;5075596;28;20526;-70
2022/05/19 13:09:51;;;;;;;8.50;2.72;;;29.40;78.60;;;;;;5064859;28;20040;-70
2022/05/19 13:12:22;;;;;;;10.45;3.28;;;29.20;76.80;;;;;;5075350;28;20488;-70
2022/05/19 13:14:55;;;;;;;11.55;3.03;;;29.60;77.20;;;;;;5075467;28;20508;-70
2022/05/19 13:17:43;;;;;;;6.07;2.70;;;29.90;78.40;;;;;;5075445;28;20511;-70
2022/05/19 13:20:25;;;;;;;5.40;2.95;;;30.10;76.20;;;;;;5075389;28;20040;-71
2022/05/19 13:22:59;;;;;;;14.70;2.65;;;29.90;76.40;;;;;;5075224;28;20059;-70
2022/05/19 13:25:26;;;;;;;9.57;2.83;;;30.10;77.30;;;;;;5075004;28;20044;-70
2022/05/19 13:30:54;;;;;;;13.13;3.28;;;29.70;76.70;;;;;;5074983;28;20044;-70